Time;durP1;ratioP1;P1;durP2;ratioP2;P2;SDS_P1;SDS_P2;PMS_P1;PMS_P2;Temp;Humidity;BMP_temperature;BMP_pressure;BME280_temperature;BME280_humidity;BME280_pressure;Samples;Min_cycle;Max_cycle;Signal;HPM_P1;HPM_P2
2021/09/04 00:02:16;;;;;;;10.25;7.65;;;;;;;24.27;39.71;101393.56;5008901;28;20140;-79
2021/09/04 00:04:43;;;;;;;13.40;8.30;;;;;;;24.25;39.87;101386.44;5009638;28;20049;-78
2021/09/04 00:07:10;;;;;;;11.10;8.18;;;;;;;24.22;40.00;101372.91;5022377;28;20494;-78
2021/09/04 00:09:37;;;;;;;10.55;7.45;;;;;;;24.19;39.72;101379.69;5009726;28;20104;-77
2021/09/04 00:12:04;;;;;;;11.15;7.85;;;;;;;24.18;39.91;101379.84;5009207;28;20050;-78
2021/09/04 00:14:31;;;;;;;12.43;8.00;;;;;;;24.16;39.76;101377.25;5010809;28;20112;-78
2021/09/04 00:16:58;;;;;;;10.40;7.03;;;;;;;24.15;40.25;101372.75;4999333;28;20092;-78
2021/09/04 00:19:24;;;;;;;10.70;7.97;;;;;;;24.15;40.40;101369.97;5010594;28;20053;-78
2021/09/04 00:21:51;;;;;;;8.80;6.50;;;;;;;24.15;39.96;101375.53;5010558;28;20050;-78
2021/09/04 00:24:17;;;;;;;11.77;8.20;;;;;;;24.15;40.23;101374.66;5007553;28;20093;-78
2021/09/04 00:26:44;;;;;;;11.38;7.55;;;;;;;24.15;40.07;101377.44;5010129;28;20046;-78
2021/09/04 00:29:11;;;;;;;11.63;7.82;;;;;;;24.15;39.83;101374.66;5018386;28;20077;-78
2021/09/04 00:31:37;;;;;;;12.55;7.95;;;;;;;24.16;39.81;101373.59;5010099;28;20121;-78
2021/09/04 00:34:04;;;;;;;11.90;8.25;;;;;;;24.16;39.86;101368.06;5009510;28;20108;-78
2021/09/04 00:36:30;;;;;;;11.93;7.38;;;;;;;24.16;40.05;101370.84;5010281;28;20100;-78
2021/09/04 00:38:57;;;;;;;10.55;8.15;;;;;;;24.16;40.49;101368.06;4993204;28;20073;-78
2021/09/04 00:41:26;;;;;;;11.07;7.75;;;;;;;24.15;40.27;101372.75;5009298;28;20042;-78
2021/09/04 00:43:52;;;;;;;11.45;8.48;;;;;;;24.14;39.90;101371.00;5011045;28;20054;-78
2021/09/04 00:46:19;;;;;;;13.57;7.95;;;;;;;24.12;40.23;101366.69;5010535;28;20058;-78
2021/09/04 00:48:45;;;;;;;10.32;7.90;;;;;;;24.11;40.27;101370.53;5008836;28;20061;-78
2021/09/04 00:51:16;;;;;;;10.88;7.20;;;;;;;24.11;40.43;101367.75;5011598;28;20111;-78
2021/09/04 00:53:43;;;;;;;10.35;7.53;;;;;;;24.11;40.27;101374.16;4996194;28;20058;-78
2021/09/04 00:56:13;;;;;;;11.30;6.88;;;;;;;24.14;40.17;101364.59;5008514;28;20437;-78
2021/09/04 00:58:40;;;;;;;12.07;7.88;;;;;;;24.13;40.36;101360.13;5009623;28;20046;-78
2021/09/04 01:01:07;;;;;;;10.52;7.25;;;;;;;24.14;40.39;101365.47;5021088;28;20050;-78
2021/09/04 01:03:34;;;;;;;11.32;7.50;;;;;;;24.16;39.83;101368.06;5011202;28;20092;-78
2021/09/04 01:06:01;;;;;;;11.05;7.20;;;;;;;24.19;40.07;101362.16;5010174;28;20658;-77
2021/09/04 01:08:29;;;;;;;9.75;6.95;;;;;;;24.23;40.17;101366.34;5012554;28;20057;-78
2021/09/04 01:10:56;;;;;;;9.10;6.47;;;;;;;24.23;39.86;101367.19;5014799;28;20085;-78
2021/09/04 01:13:22;;;;;;;11.45;7.55;;;;;;;24.25;40.17;101367.03;5006492;28;20046;-78
2021/09/04 01:15:49;;;;;;;10.95;7.97;;;;;;;24.27;39.80;101362.16;5013493;28;20081;-78
2021/09/04 01:18:16;;;;;;;9.73;7.00;;;;;;;24.30;39.85;101366.47;5011727;28;20555;-78
2021/09/04 01:20:44;;;;;;;9.90;7.18;;;;;;;24.27;39.84;101360.25;5023682;28;20520;-78
2021/09/04 01:23:10;;;;;;;11.15;8.07;;;;;;;24.30;39.58;101355.38;5013931;28;20061;-78
2021/09/04 01:25:40;;;;;;;11.18;8.23;;;;;;;24.31;40.09;101359.88;5014444;28;20077;-78
2021/09/04 01:28:06;;;;;;;12.15;8.48;;;;;;;24.24;39.99;101352.28;5011218;28;20440;-78
2021/09/04 01:30:33;;;;;;;12.57;8.68;;;;;;;24.23;39.80;101356.09;5013449;28;20096;-78
2021/09/04 01:33:00;;;;;;;12.05;8.35;;;;;;;24.19;39.83;101365.81;5002024;28;20066;-78
2021/09/04 01:35:27;;;;;;;10.52;8.00;;;;;;;24.13;40.00;101358.19;5012421;28;20046;-78
2021/09/04 01:37:54;;;;;;;13.43;8.82;;;;;;;24.10;40.26;101360.47;5010030;28;20766;-78
2021/09/04 01:40:22;;;;;;;11.18;8.13;;;;;;;24.06;40.06;101359.94;5009885;28;20046;-78
2021/09/04 01:42:49;;;;;;;12.95;8.48;;;;;;;24.00;40.22;101357.00;5010401;28;20053;-78
2021/09/04 01:45:17;;;;;;;12.52;8.48;;;;;;;23.97;40.46;101344.34;5011443;28;20050;-77
2021/09/04 01:47:44;;;;;;;11.23;8.30;;;;;;;23.92;40.56;101349.59;5008865;28;20046;-78
2021/09/04 01:50:13;;;;;;;11.77;7.93;;;;;;;23.89;40.21;101349.94;5010610;28;20133;-78
2021/09/04 01:52:45;;;;;;;13.05;8.98;;;;;;;23.92;40.22;101345.94;5012813;28;20712;-78
2021/09/04 01:55:14;;;;;;;12.27;9.07;;;;;;;23.85;40.49;101343.88;5013272;28;20096;-78
2021/09/04 01:57:41;;;;;;;12.75;8.88;;;;;;;23.82;40.47;101337.81;4999158;28;20054;-77
2021/09/04 02:00:13;;;;;;;13.65;9.75;;;;;;;23.84;40.88;101338.50;5011411;28;20136;-77
2021/09/04 02:02:39;;;;;;;14.37;9.37;;;;;;;23.77;40.77;101346.69;5011623;28;20137;-78
2021/09/04 02:05:08;;;;;;;15.95;10.27;;;;;;;23.78;40.40;101348.41;5011233;28;20050;-78
2021/09/04 02:07:35;;;;;;;16.48;10.20;;;;;;;23.76;40.58;101350.50;5009535;28;20124;-77
2021/09/04 02:10:03;;;;;;;15.15;9.48;;;;;;;23.77;40.83;101349.44;5011944;28;20133;-77
2021/09/04 02:12:30;;;;;;;15.60;10.07;;;;;;;23.76;41.00;101349.63;5011617;28;20073;-77
2021/09/04 02:14:56;;;;;;;13.45;8.73;;;;;;;23.76;40.92;101353.25;5012993;28;20085;-77
2021/09/04 02:17:23;;;;;;;13.02;9.60;;;;;;;23.77;40.56;101348.59;5019569;28;20072;-77
2021/09/04 02:19:49;;;;;;;14.43;9.25;;;;;;;23.76;40.89;101352.41;5010485;28;20108;-77
2021/09/04 02:22:16;;;;;;;13.40;8.63;;;;;;;23.75;40.37;101348.75;5012476;28;20564;-78
2021/09/04 02:24:43;;;;;;;11.93;8.63;;;;;;;23.75;40.54;101348.75;5011479;28;20077;-77
2021/09/04 02:27:09;;;;;;;13.85;8.43;;;;;;;23.74;40.48;101340.59;5010680;28;20129;-78
2021/09/04 02:29:36;;;;;;;12.15;8.02;;;;;;;23.75;40.16;101336.78;5005930;28;20149;-78
2021/09/04 02:32:03;;;;;;;14.07;8.20;;;;;;;23.75;40.38;101339.56;5008343;28;20133;-78
2021/09/04 02:34:29;;;;;;;10.85;7.75;;;;;;;23.75;40.75;101336.78;5011652;28;20088;-77
2021/09/04 02:36:56;;;;;;;13.30;8.52;;;;;;;23.75;40.59;101337.66;5013205;28;20046;-78
2021/09/04 02:39:22;;;;;;;11.00;7.80;;;;;;;23.75;40.41;101336.78;5011347;28;20079;-77
2021/09/04 02:41:49;;;;;;;10.45;7.55;;;;;;;23.75;40.53;101340.44;5011152;28;20049;-77
2021/09/04 02:44:16;;;;;;;10.68;7.80;;;;;;;23.75;40.77;101336.78;5011282;28;20084;-77
2021/09/04 02:46:42;;;;;;;10.90;7.43;;;;;;;23.74;40.62;101327.59;5009623;28;20350;-77
2021/09/04 02:49:09;;;;;;;10.55;7.45;;;;;;;23.75;40.47;101334.03;5009303;28;20049;-77
2021/09/04 02:51:37;;;;;;;11.48;7.82;;;;;;;23.75;40.20;101328.47;5012458;28;20100;-78
2021/09/04 02:54:04;;;;;;;11.68;7.32;;;;;;;23.74;40.40;101322.06;5010930;28;20081;-77
2021/09/04 02:56:34;;;;;;;11.10;7.70;;;;;;;23.74;40.45;101323.97;5026661;28;20080;-77
2021/09/04 02:59:00;;;;;;;10.75;7.47;;;;;;;23.74;40.36;101327.59;5011266;28;20077;-78
2021/09/04 03:01:27;;;;;;;11.25;7.28;;;;;;;23.74;40.20;101326.75;5011910;28;20077;-77
2021/09/04 03:03:54;;;;;;;11.10;7.75;;;;;;;23.73;39.98;101327.78;5007609;28;20054;-77
2021/09/04 03:06:21;;;;;;;10.48;7.55;;;;;;;23.72;40.01;101331.63;5011346;28;20046;-77
2021/09/04 03:08:49;;;;;;;12.68;8.70;;;;;;;23.72;39.99;101331.63;5007789;28;20145;-77
2021/09/04 03:11:19;;;;;;;12.38;8.23;;;;;;;23.72;40.65;101334.41;5007708;28;20053;-77
2021/09/04 03:13:45;;;;;;;9.45;7.03;;;;;;;23.68;40.29;101335.78;5007584;28;20065;-77
2021/09/04 03:16:12;;;;;;;11.82;7.95;;;;;;;23.66;40.14;101330.41;5008465;28;20099;-77
2021/09/04 03:18:38;;;;;;;12.50;8.45;;;;;;;23.64;40.16;101331.59;5005731;28;20482;-77
2021/09/04 03:21:05;;;;;;;12.85;8.63;;;;;;;23.63;40.33;101332.69;5008757;28;20050;-77
2021/09/04 03:23:32;;;;;;;12.43;8.35;;;;;;;23.62;40.27;101330.94;5007891;28;20050;-77
2021/09/04 03:25:58;;;;;;;12.25;8.15;;;;;;;23.60;40.22;101333.88;5009510;28;20468;-77
2021/09/04 03:28:25;;;;;;;12.02;8.23;;;;;;;23.59;40.29;101329.38;5006282;28;20104;-78
2021/09/04 03:30:52;;;;;;;11.48;7.72;;;;;;;23.57;40.25;101325.03;5008527;28;20077;-77
2021/09/04 03:33:18;;;;;;;12.50;8.50;;;;;;;23.55;40.63;101328.00;5006501;28;20046;-77
2021/09/04 03:35:45;;;;;;;14.85;9.77;;;;;;;23.53;40.60;101321.78;5009584;28;20100;-77
2021/09/04 03:38:12;;;;;;;13.55;8.75;;;;;;;23.49;40.87;101324.00;4997200;28;20115;-77
2021/09/04 03:40:38;;;;;;;13.93;9.30;;;;;;;23.47;40.44;101320.50;5017243;28;20138;-77
2021/09/04 03:43:05;;;;;;;15.35;9.52;;;;;;;23.44;40.90;101320.00;5007560;28;20057;-77
2021/09/04 03:45:31;;;;;;;13.85;10.00;;;;;;;23.41;40.69;101325.88;5007273;28;20058;-77
2021/09/04 03:47:58;;;;;;;13.75;8.98;;;;;;;23.37;40.70;101322.63;5007184;28;20140;-77
2021/09/04 03:50:24;;;;;;;13.40;9.18;;;;;;;23.35;40.42;101323.81;5008570;28;20057;-77
2021/09/04 03:52:51;;;;;;;14.48;9.70;;;;;;;23.31;40.94;101328.84;5005954;28;20494;-77
2021/09/04 03:55:18;;;;;;;13.73;9.50;;;;;;;23.30;40.66;101329.03;5007788;28;20050;-77
2021/09/04 03:57:44;;;;;;;13.82;9.23;;;;;;;23.28;40.62;101329.19;5006212;28;20165;-77
2021/09/04 04:00:11;;;;;;;14.13;9.40;;;;;;;23.27;40.76;101346.88;5006810;28;20487;-77
2021/09/04 04:02:39;;;;;;;12.73;8.98;;;;;;;23.25;40.85;101348.94;5007545;28;20137;-77
2021/09/04 04:05:06;;;;;;;15.75;10.32;;;;;;;23.24;41.04;101346.31;5008327;28;20129;-77
2021/09/04 04:07:34;;;;;;;14.82;10.05;;;;;;;23.21;40.90;101341.16;5007664;28;20050;-77
2021/09/04 04:10:00;;;;;;;15.07;10.18;;;;;;;23.18;41.13;101353.44;5006151;28;20085;-77
2021/09/04 04:12:28;;;;;;;14.80;10.23;;;;;;;23.13;41.55;101345.66;5006450;28;20050;-78
2021/09/04 04:14:55;;;;;;;14.48;10.80;;;;;;;23.09;40.90;101346.16;5024750;28;20050;-77
2021/09/04 04:17:21;;;;;;;15.63;10.27;;;;;;;23.03;41.32;101347.72;5013266;28;20086;-78
2021/09/04 04:19:48;;;;;;;15.80;10.65;;;;;;;22.96;41.82;101346.66;5008471;28;20405;-77
2021/09/04 04:22:19;;;;;;;17.40;10.73;;;;;;;22.90;41.57;101344.56;5010349;28;20042;-78
2021/09/04 04:24:45;;;;;;;17.92;11.00;;;;;;;22.84;41.32;101342.47;5007592;28;20136;-77
2021/09/04 04:27:12;;;;;;;16.08;11.20;;;;;;;22.80;41.65;101349.41;5008194;28;20049;-77
2021/09/04 04:29:39;;;;;;;17.73;11.45;;;;;;;22.74;41.41;101345.41;5004886;28;20072;-77
2021/09/04 04:32:06;;;;;;;16.05;11.57;;;;;;;22.69;42.17;101344.16;5003749;28;20081;-78
2021/09/04 04:34:32;;;;;;;15.75;11.32;;;;;;;22.64;41.76;101346.56;5010836;28;20137;-77
2021/09/04 04:36:59;;;;;;;16.33;10.35;;;;;;;22.59;41.67;101349.81;5012278;28;20081;-77
2021/09/04 04:39:25;;;;;;;15.50;10.38;;;;;;;22.54;41.83;101346.72;5012545;28;20482;-77
2021/09/04 04:41:52;;;;;;;15.13;10.23;;;;;;;22.53;41.79;101344.97;5013570;28;20045;-77
2021/09/04 04:44:18;;;;;;;15.27;10.00;;;;;;;22.51;42.17;101343.41;5009481;28;20129;-77
2021/09/04 04:46:45;;;;;;;15.30;10.35;;;;;;;22.52;41.75;101350.69;5017022;28;20100;-77
2021/09/04 04:49:11;;;;;;;14.00;10.15;;;;;;;22.53;42.16;101349.66;5012596;28;20112;-77
2021/09/04 04:51:38;;;;;;;15.73;10.95;;;;;;;22.52;42.26;101357.06;5011777;28;20080;-77
2021/09/04 04:54:04;;;;;;;15.93;10.63;;;;;;;22.53;42.51;101346.88;5012238;28;20057;-77
2021/09/04 04:56:31;;;;;;;15.43;10.65;;;;;;;22.52;42.12;101357.06;5014252;28;20129;-77
2021/09/04 04:58:57;;;;;;;16.48;10.57;;;;;;;22.53;42.09;101355.19;5026487;28;20125;-77
2021/09/04 05:01:24;;;;;;;15.73;11.27;;;;;;;22.53;42.32;101361.59;5020952;28;20084;-77
2021/09/04 05:03:51;;;;;;;15.60;10.02;;;;;;;22.53;42.29;101357.94;5012144;28;20490;-77
2021/09/04 05:06:17;;;;;;;16.45;10.05;;;;;;;22.53;41.77;101357.94;5017418;28;20073;-77
2021/09/04 05:08:44;;;;;;;15.90;10.32;;;;;;;22.53;42.11;101356.03;5011367;28;20057;-77
2021/09/04 05:11:11;;;;;;;15.70;10.48;;;;;;;22.54;42.06;101363.31;5011984;28;20104;-77
2021/09/04 05:13:37;;;;;;;17.38;11.55;;;;;;;22.53;42.35;101360.72;5012417;28;20073;-77
2021/09/04 05:16:04;;;;;;;17.27;12.07;;;;;;;22.53;42.45;101367.13;5011085;28;20555;-77
2021/09/04 05:18:31;;;;;;;17.98;11.80;;;;;;;22.52;42.01;101365.38;5011255;28;20361;-77
2021/09/04 05:20:57;;;;;;;19.15;12.65;;;;;;;22.50;42.26;101369.34;5000351;28;20058;-77
2021/09/04 05:23:24;;;;;;;16.17;10.63;;;;;;;22.48;42.24;101374.19;5012756;28;20088;-77
2021/09/04 05:25:50;;;;;;;17.63;11.85;;;;;;;22.44;42.19;101375.56;5011651;28;20045;-77
2021/09/04 05:28:17;;;;;;;17.95;11.85;;;;;;;22.40;42.19;101377.81;5010817;28;20050;-77
2021/09/04 05:30:43;;;;;;;18.02;11.50;;;;;;;22.37;42.90;101381.75;5006554;28;20054;-77
2021/09/04 05:33:10;;;;;;;16.73;11.57;;;;;;;22.35;42.91;101388.47;5012693;28;20446;-77
2021/09/04 05:35:36;;;;;;;17.83;10.95;;;;;;;22.33;42.58;101388.63;5013558;28;20068;-77
2021/09/04 05:38:03;;;;;;;17.92;12.25;;;;;;;22.31;42.63;101390.72;5011964;28;20100;-77
2021/09/04 05:40:29;;;;;;;17.58;11.55;;;;;;;22.30;42.76;101390.88;5009113;28;20502;-77
2021/09/04 05:42:56;;;;;;;19.27;12.90;;;;;;;22.29;43.13;101391.91;5001225;28;20172;-78
2021/09/04 05:45:22;;;;;;;17.15;11.50;;;;;;;22.28;42.74;101385.50;5010314;28;20050;-77
2021/09/04 05:47:49;;;;;;;18.35;11.65;;;;;;;22.27;42.45;101385.69;5010683;28;20050;-77
2021/09/04 05:50:16;;;;;;;17.20;11.90;;;;;;;22.27;42.80;101388.44;5012921;28;20081;-78
2021/09/04 05:52:42;;;;;;;19.95;12.18;;;;;;;22.25;43.02;101388.59;5002033;28;20610;-78
2021/09/04 05:55:09;;;;;;;16.73;11.32;;;;;;;22.24;43.00;101392.41;5002500;28;20042;-77
2021/09/04 05:57:35;;;;;;;18.33;12.05;;;;;;;22.22;42.73;101397.25;5009420;28;20054;-77
2021/09/04 06:00:03;;;;;;;17.73;11.55;;;;;;;22.23;42.92;101392.59;5002607;28;20112;-78
2021/09/04 06:02:30;;;;;;;16.10;11.18;;;;;;;22.21;43.17;101391.88;5008840;28;20045;-78
2021/09/04 06:04:57;;;;;;;19.20;11.48;;;;;;;22.19;43.28;101392.03;5009851;28;20053;-78
2021/09/04 06:07:23;;;;;;;19.20;12.70;;;;;;;22.19;43.38;101392.03;5009536;28;20133;-78
2021/09/04 06:09:50;;;;;;;19.35;12.05;;;;;;;22.17;43.02;101391.31;5012395;28;20460;-78
2021/09/04 06:12:16;;;;;;;18.27;11.73;;;;;;;22.15;43.74;101401.72;5010535;28;20081;-77
2021/09/04 06:14:43;;;;;;;22.45;13.70;;;;;;;22.10;43.92;101393.03;5012339;28;20119;-77
2021/09/04 06:17:10;;;;;;;19.42;13.18;;;;;;;22.05;43.80;101398.19;5012780;28;20053;-77
2021/09/04 06:19:36;;;;;;;18.02;11.90;;;;;;;21.99;43.96;101396.06;5009795;28;20087;-77
2021/09/04 06:22:03;;;;;;;20.63;13.32;;;;;;;21.95;44.21;101401.03;5008586;28;20135;-77
2021/09/04 06:24:29;;;;;;;19.67;12.82;;;;;;;21.91;43.89;101396.84;5017110;28;20092;-77
2021/09/04 06:26:56;;;;;;;20.70;13.05;;;;;;;21.87;44.06;101400.97;5010922;28;20092;-77
2021/09/04 06:29:24;;;;;;;21.17;13.63;;;;;;;21.84;44.32;101398.53;5009241;28;20128;-77
2021/09/04 06:31:51;;;;;;;19.95;12.13;;;;;;;21.81;44.39;101401.63;5016340;28;20129;-77
2021/09/04 06:34:18;;;;;;;23.15;13.63;;;;;;;21.79;44.51;101405.56;5018992;28;20120;-78
2021/09/04 06:36:44;;;;;;;21.17;13.10;;;;;;;21.78;44.78;101406.59;5012048;28;20072;-78
2021/09/04 06:39:11;;;;;;;22.00;13.90;;;;;;;21.78;45.00;101414.91;5004248;28;20053;-77
2021/09/04 06:41:38;;;;;;;21.08;13.18;;;;;;;21.77;44.59;101413.16;5009553;28;20136;-77
2021/09/04 06:44:04;;;;;;;21.90;13.93;;;;;;;21.78;45.28;101412.13;5010129;28;20060;-77
2021/09/04 06:46:32;;;;;;;22.08;13.88;;;;;;;21.78;44.95;101418.53;5009701;28;20092;-78
2021/09/04 06:48:59;;;;;;;19.63;13.13;;;;;;;21.77;45.12;101414.03;5012360;28;20470;-78
2021/09/04 06:51:26;;;;;;;20.27;12.82;;;;;;;21.78;45.43;101418.53;5008864;28;20073;-76
2021/09/04 06:53:53;;;;;;;19.38;12.77;;;;;;;21.79;45.61;101417.50;5010024;28;20058;-76
2021/09/04 06:56:20;;;;;;;20.52;12.90;;;;;;;21.80;45.81;101415.59;5000119;28;20046;-77
2021/09/04 06:58:46;;;;;;;21.40;13.48;;;;;;;21.81;45.61;101417.34;5007097;28;20513;-78
2021/09/04 07:01:13;;;;;;;22.20;13.07;;;;;;;21.84;45.86;101417.00;5006543;28;20501;-78
2021/09/04 07:03:40;;;;;;;20.65;12.73;;;;;;;21.85;45.87;101416.84;5008447;28;20073;-77
2021/09/04 07:06:08;;;;;;;19.45;12.07;;;;;;;21.88;45.42;101421.19;5007846;28;20046;-78
2021/09/04 07:08:34;;;;;;;19.58;11.70;;;;;;;21.90;45.42;101419.16;5004253;28;20093;-77
2021/09/04 07:11:02;;;;;;;18.50;12.65;;;;;;;21.92;45.62;101417.94;5005650;28;20073;-79
2021/09/04 07:13:28;;;;;;;19.77;12.55;;;;;;;21.95;45.38;101419.50;5008008;28;20413;-79
2021/09/04 07:15:56;;;;;;;18.45;12.30;;;;;;;21.98;45.85;101424.75;5006984;28;20058;-79
2021/09/04 07:18:24;;;;;;;17.67;11.75;;;;;;;21.98;45.77;101419.22;5009427;28;20128;-78
2021/09/04 07:20:51;;;;;;;19.10;12.70;;;;;;;22.01;45.67;101413.34;5016119;28;20080;-78
2021/09/04 07:23:18;;;;;;;18.50;11.85;;;;;;;22.05;45.75;101419.44;5009681;28;20060;-78
2021/09/04 07:25:45;;;;;;;15.15;10.90;;;;;;;22.10;46.05;101422.56;5008904;28;20286;-79
2021/09/04 07:28:11;;;;;;;18.92;11.65;;;;;;;22.13;45.65;101411.19;5010802;28;20049;-79
2021/09/04 07:30:38;;;;;;;18.48;12.18;;;;;;;22.14;45.70;101424.00;5011398;28;20077;-79
2021/09/04 07:33:04;;;;;;;18.92;12.02;;;;;;;22.14;45.92;101419.34;5010139;28;20112;-80
2021/09/04 07:35:31;;;;;;;17.30;11.20;;;;;;;22.16;45.48;101425.53;5004255;28;20552;-79
2021/09/04 07:37:59;;;;;;;17.30;10.77;;;;;;;22.17;45.76;101423.66;4999511;28;20099;-79
2021/09/04 07:40:26;;;;;;;17.63;11.50;;;;;;;22.18;46.08;101430.91;5008662;28;20045;-78
2021/09/04 07:42:52;;;;;;;16.63;11.15;;;;;;;22.18;45.46;101429.03;4992721;28;20512;-78
2021/09/04 07:45:19;;;;;;;17.40;10.88;;;;;;;22.19;45.77;101436.28;5011038;28;20052;-78
2021/09/04 07:47:45;;;;;;;16.83;11.05;;;;;;;22.20;45.99;101437.16;5015634;28;20093;-77
2021/09/04 07:50:12;;;;;;;15.85;10.10;;;;;;;22.23;46.03;101434.94;5011939;28;20115;-78
2021/09/04 07:52:39;;;;;;;17.17;10.20;;;;;;;22.26;45.96;101430.97;5026450;28;20080;-78
2021/09/04 07:55:06;;;;;;;17.58;11.00;;;;;;;22.31;46.08;101429.47;5006473;28;20061;-79
2021/09/04 07:57:32;;;;;;;15.88;10.70;;;;;;;22.35;45.67;101432.75;5013899;28;20077;-78
2021/09/04 07:59:59;;;;;;;15.52;9.23;;;;;;;22.41;45.79;101429.31;5011896;28;20454;-78
2021/09/04 08:02:27;;;;;;;16.75;10.60;;;;;;;22.49;45.46;101437.66;5007451;28;20050;-79
2021/09/04 08:04:54;;;;;;;14.88;10.20;;;;;;;22.54;45.53;101434.41;5010846;28;20133;-78
2021/09/04 08:07:20;;;;;;;17.23;10.95;;;;;;;22.57;45.78;101429.38;5007504;28;20523;-80
2021/09/04 08:09:47;;;;;;;18.48;11.38;;;;;;;22.62;45.80;101439.97;5010863;28;20525;-79
2021/09/04 08:12:14;;;;;;;15.52;10.45;;;;;;;22.66;45.58;101433.94;5009563;28;20077;-78
2021/09/04 08:14:40;;;;;;;15.73;10.77;;;;;;;22.70;46.11;101435.34;4994717;28;20088;-79
2021/09/04 08:17:07;;;;;;;15.20;10.85;;;;;;;22.75;45.75;101437.63;4991128;28;20085;-78
2021/09/04 08:19:33;;;;;;;15.30;10.07;;;;;;;22.80;45.53;101443.56;5003497;28;20057;-78
2021/09/04 08:22:02;;;;;;;14.63;9.75;;;;;;;22.83;45.81;101437.66;5002332;28;20052;-78
2021/09/04 08:24:31;;;;;;;15.50;9.98;;;;;;;22.89;45.93;101437.00;5010116;28;20445;-77
2021/09/04 08:26:58;;;;;;;16.33;10.23;;;;;;;22.96;45.86;101448.28;4992076;28;20050;-77
2021/09/04 08:29:25;;;;;;;14.85;9.95;;;;;;;23.02;45.90;101447.59;5022598;28;20081;-77
2021/09/04 08:31:52;;;;;;;16.10;10.48;;;;;;;23.06;45.58;101449.00;5010345;28;20049;-79
2021/09/04 08:34:19;;;;;;;14.75;9.45;;;;;;;23.11;45.53;101450.22;5009760;28;20064;-78
2021/09/04 08:36:46;;;;;;;15.43;10.02;;;;;;;23.18;45.37;101446.75;5011838;28;20077;-78
2021/09/04 08:39:12;;;;;;;13.88;9.52;;;;;;;23.24;45.57;101443.31;5010370;28;20126;-78
2021/09/04 08:41:39;;;;;;;15.00;10.48;;;;;;;23.31;45.33;101452.66;5010912;28;20042;-78
2021/09/04 08:44:06;;;;;;;13.43;9.75;;;;;;;23.38;45.35;101451.84;5009418;28;20405;-78
2021/09/04 08:46:36;;;;;;;15.23;10.48;;;;;;;23.48;45.04;101446.09;5000452;28;20050;-78
2021/09/04 08:49:05;;;;;;;14.82;9.93;;;;;;;23.52;44.92;101448.41;5009919;28;20050;-78
2021/09/04 08:51:32;;;;;;;14.30;10.30;;;;;;;23.54;44.85;101445.47;5011011;28;20092;-78
2021/09/04 08:53:59;;;;;;;16.80;10.48;;;;;;;23.57;44.84;101442.34;4996211;28;20074;-77
2021/09/04 08:56:26;;;;;;;15.98;10.65;;;;;;;23.58;44.45;101449.63;4993091;28;20054;-77
2021/09/04 08:58:52;;;;;;;14.32;9.77;;;;;;;23.60;44.80;101446.66;5018575;28;20150;-77
2021/09/04 09:01:22;;;;;;;13.93;9.05;;;;;;;23.65;44.54;101441.47;5025599;28;20050;-81
2021/09/04 09:03:51;;;;;;;12.52;8.38;;;;;;;23.66;44.50;101446.84;5009759;28;20057;-76
2021/09/04 09:06:36;;;;;;;15.68;10.98;;;;;;;23.70;44.58;101459.34;5003926;28;20100;-75
2021/09/04 09:09:23;;;;;;;15.25;10.27;;;;;;;23.69;44.17;101452.06;5006610;28;20095;-75
2021/09/04 09:11:55;;;;;;;14.98;11.48;;;;;;;23.72;44.34;101456.41;5008642;28;20076;-75
2021/09/04 09:14:23;;;;;;;15.55;10.18;;;;;;;23.71;44.54;101457.44;5006161;28;20065;-75
2021/09/04 09:16:50;;;;;;;13.18;9.27;;;;;;;23.74;44.60;101455.16;5001465;28;20609;-75
2021/09/04 09:19:20;;;;;;;12.25;8.80;;;;;;;23.82;44.56;101451.50;5013469;28;20505;-75
2021/09/04 09:21:46;;;;;;;12.70;8.90;;;;;;;23.88;44.64;101439.75;5013449;28;20057;-74
2021/09/04 09:24:16;;;;;;;12.77;8.52;;;;;;;24.02;44.66;101443.72;5008820;28;20129;-76
2021/09/04 09:27:00;;;;;;;12.25;8.88;;;;;;;24.13;44.61;101435.88;5010834;28;20046;-75
2021/09/04 09:29:34;;;;;;;12.52;8.15;;;;;;;24.26;45.04;101438.13;5015546;28;20057;-76
2021/09/04 09:32:09;;;;;;;11.90;7.47;;;;;;;24.42;44.73;101437.22;5009202;28;20053;-74
2021/09/04 09:34:40;;;;;;;12.68;7.43;;;;;;;24.52;44.66;101433.19;5009210;28;20049;-75
2021/09/04 09:37:08;;;;;;;13.45;8.63;;;;;;;24.65;44.80;101425.16;5008495;28;20089;-74
2021/09/04 09:39:39;;;;;;;13.07;8.27;;;;;;;24.83;44.16;101433.22;5005592;28;20046;-75
2021/09/04 09:42:07;;;;;;;15.32;10.90;;;;;;;24.89;43.92;101432.50;5005911;28;20046;-74
2021/09/04 09:44:36;;;;;;;12.15;8.70;;;;;;;24.99;43.70;101437.88;5011237;28;20050;-74
2021/09/04 09:47:04;;;;;;;12.27;8.70;;;;;;;25.05;43.64;101444.59;5011788;28;20576;-74
2021/09/04 09:49:32;;;;;;;11.85;8.15;;;;;;;25.11;43.58;101435.56;5011059;28;20487;-73
2021/09/04 09:52:07;;;;;;;13.80;8.68;;;;;;;25.18;43.21;101439.31;5011575;28;20424;-76
2021/09/04 09:54:35;;;;;;;11.63;7.85;;;;;;;25.27;43.33;101435.44;5025481;28;20107;-74
2021/09/04 09:57:07;;;;;;;12.30;8.82;;;;;;;25.39;42.81;101440.38;5005728;28;20045;-75
2021/09/04 09:59:34;;;;;;;11.20;8.20;;;;;;;25.44;42.93;101431.50;5010467;28;20049;-77
2021/09/04 10:02:09;;;;;;;12.55;8.93;;;;;;;25.56;42.49;101434.69;5013193;28;20103;-78
2021/09/04 10:04:38;;;;;;;12.00;7.28;;;;;;;25.60;42.50;101430.53;5012915;28;20066;-75
2021/09/04 10:07:09;;;;;;;11.85;7.78;;;;;;;25.69;42.19;101432.19;5008633;28;20054;-73
2021/09/04 10:09:39;;;;;;;11.43;7.95;;;;;;;25.74;42.28;101430.56;5009817;28;20141;-73
2021/09/04 10:12:07;;;;;;;10.88;7.80;;;;;;;25.82;42.42;101426.84;5009571;28;20046;-72
2021/09/04 10:14:35;;;;;;;11.45;8.05;;;;;;;25.86;41.94;101425.41;5010292;28;20567;-72
2021/09/04 10:17:04;;;;;;;10.05;7.07;;;;;;;25.92;42.04;101427.47;5010442;28;20046;-72
2021/09/04 10:19:33;;;;;;;11.32;7.63;;;;;;;26.00;41.66;101420.94;5009252;28;20060;-72
2021/09/04 10:22:05;;;;;;;10.48;7.38;;;;;;;26.05;41.53;101429.59;5011435;28;20054;-72
2021/09/04 10:24:51;;;;;;;10.20;7.28;;;;;;;26.10;40.56;101421.56;5008127;28;20489;-72
2021/09/04 10:27:36;;;;;;;10.55;7.57;;;;;;;26.12;40.81;101431.41;5007110;28;20078;-73
2021/09/04 10:30:29;;;;;;;9.88;6.82;;;;;;;26.13;41.15;101422.00;5014846;28;20049;-72
2021/09/04 10:33:10;;;;;;;10.95;7.22;;;;;;;26.23;41.07;101423.66;4998749;28;20058;-72
2021/09/04 10:35:41;;;;;;;10.25;7.63;;;;;;;26.27;40.58;101414.78;5009229;28;20523;-72
2021/09/04 10:38:17;;;;;;;9.75;6.72;;;;;;;26.32;41.09;101415.06;4993329;28;20410;-72
2021/09/04 10:41:11;;;;;;;9.70;7.00;;;;;;;26.37;40.93;101418.13;5003984;28;20501;-71
2021/09/04 10:43:49;;;;;;;8.73;6.15;;;;;;;26.40;41.01;101420.53;5007182;28;20077;-70
2021/09/04 10:46:18;;;;;;;8.25;5.75;;;;;;;26.44;41.03;101412.63;5009388;28;20266;-70
2021/09/04 10:48:56;;;;;;;7.85;5.97;;;;;;;26.54;41.28;101410.44;5009598;28;20136;-72
2021/09/04 10:51:43;;;;;;;9.80;7.55;;;;;;;26.58;40.63;101406.22;5011560;28;20046;-72
2021/09/04 10:54:10;;;;;;;10.10;6.82;;;;;;;26.67;41.24;101413.41;5007059;28;20058;-73
2021/09/04 10:56:38;;;;;;;10.13;7.65;;;;;;;26.76;41.02;101411.38;5008486;28;20092;-71
2021/09/04 10:59:05;;;;;;;9.77;6.65;;;;;;;26.81;40.76;101408.88;5007549;28;20128;-72
2021/09/04 11:01:38;;;;;;;9.70;6.72;;;;;;;26.91;40.06;101405.81;5007022;28;20130;-71
2021/09/04 11:04:05;;;;;;;9.95;6.68;;;;;;;26.95;40.59;101409.91;5005940;28;20157;-71
2021/09/04 11:06:31;;;;;;;10.55;7.00;;;;;;;26.99;40.55;101402.91;5022461;28;20105;-72
2021/09/04 11:08:58;;;;;;;9.15;7.00;;;;;;;27.04;40.24;101401.25;5003396;28;20050;-72
2021/09/04 11:11:33;;;;;;;9.60;6.78;;;;;;;27.10;40.27;101402.38;5007993;28;20323;-72
2021/09/04 11:14:13;;;;;;;9.20;6.45;;;;;;;27.17;40.09;101397.75;5003574;28;20412;-72
2021/09/04 11:16:40;;;;;;;9.80;7.20;;;;;;;27.20;40.10;101392.63;5007730;28;20042;-71
2021/09/04 11:19:10;;;;;;;9.57;7.20;;;;;;;27.30;39.92;101397.03;5008543;28;20061;-71